Time;durP1;ratioP1;P1;durP2;ratioP2;P2;SDS_P1;SDS_P2;PMS_P1;PMS_P2;Temp;Humidity;BMP_temperature;BMP_pressure;BME280_temperature;BME280_humidity;BME280_pressure;Samples;Min_cycle;Max_cycle;Signal;HPM_P1;HPM_P2
2022/08/02 00:01:38;;;;;;;23.83;2.17;;;;;;;25.64;56.31;99630.13;7312190;19;129173;-36
2022/08/02 00:04:03;;;;;;;21.47;2.13;;;;;;;25.63;56.77;99631.94;7308164;19;129183;-36
2022/08/02 00:06:29;;;;;;;49.17;4.43;;;;;;;25.61;55.86;99620.78;7310665;19;130091;-36
2022/08/02 00:08:54;;;;;;;20.10;1.90;;;;;;;25.62;56.39;99618.94;7309678;19;129406;-43
2022/08/02 00:11:20;;;;;;;32.00;2.87;;;;;;;25.61;55.75;99617.31;7310374;19;129073;-36
2022/08/02 00:13:45;;;;;;;22.77;2.13;;;;;;;25.61;56.19;99615.50;7310332;19;129975;-40
2022/08/02 00:16:11;;;;;;;22.73;2.20;;;;;;;25.62;56.30;99616.31;7311334;19;130906;-37
2022/08/02 00:18:36;;;;;;;32.20;2.73;;;;;;;25.63;56.14;99610.88;7310395;19;130842;-40
2022/08/02 00:21:02;;;;;;;22.83;2.13;;;;;;;25.63;56.57;99608.25;7312294;19;129391;-35
2022/08/02 00:23:27;;;;;;;27.13;2.50;;;;;;;25.63;56.02;99607.44;7308608;19;129498;-37
2022/08/02 00:25:53;;;;;;;19.47;1.90;;;;;;;25.63;56.95;99615.34;7312119;19;130219;-39
2022/08/02 00:28:18;;;;;;;23.20;2.00;;;;;;;25.62;56.10;99624.22;7309510;19;129008;-42
2022/08/02 00:30:44;;;;;;;19.03;2.03;;;;;;;25.62;55.90;99624.22;7309929;19;129580;-36
2022/08/02 00:33:09;;;;;;;19.87;1.90;;;;;;;25.60;56.08;99623.56;7307974;19;129180;-40
2022/08/02 00:35:35;;;;;;;50.23;4.40;;;;;;;25.61;55.72;99625.22;7308001;19;129184;-34
2022/08/02 00:38:03;;;;;;;22.23;2.10;;;;;;;25.61;56.11;99620.78;7311084;19;129187;-42
2022/08/02 00:40:29;;;;;;;27.13;2.47;;;;;;;25.60;56.62;99624.38;7311168;19;129334;-39
2022/08/02 00:43:05;;;;;;;25.02;2.50;;;;;;;25.62;57.55;99616.31;7310852;19;130609;-33
2022/08/02 00:45:31;;;;;;;30.02;2.72;;;;;;;25.60;56.16;99618.31;7305432;19;130820;-36
2022/08/02 00:47:56;;;;;;;46.87;3.97;;;;;;;25.55;55.66;99607.44;7305607;19;129182;-33
2022/08/02 00:50:22;;;;;;;24.40;2.30;;;;;;;25.61;55.29;99617.31;7309913;19;128858;-44
2022/08/02 00:52:47;;;;;;;47.90;4.27;;;;;;;25.53;56.44;99607.63;7308492;19;129607;-40
2022/08/02 00:55:13;;;;;;;13.10;1.57;;;;;;;25.59;56.30;99616.63;7309701;19;130322;-37
2022/08/02 00:57:38;;;;;;;25.87;2.40;;;;;;;25.61;56.34;99620.78;7314112;19;129168;-42
2022/08/02 01:00:05;;;;;;;22.00;1.87;;;;;;;25.52;56.25;99610.38;7314294;19;129021;-41
2022/08/02 01:02:30;;;;;;;8.25;1.20;;;;;;;25.59;55.50;99624.53;7317136;19;131081;-39
2022/08/02 01:04:55;;;;;;;46.17;3.97;;;;;;;25.58;56.42;99628.16;7316192;19;129307;-33
2022/08/02 01:07:21;;;;;;;24.07;2.27;;;;;;;25.58;56.58;99623.72;7317693;19;128952;-36
2022/08/02 01:09:46;;;;;;;15.70;1.60;;;;;;;25.55;55.98;99610.06;7314641;19;130928;-40
2022/08/02 01:12:12;;;;;;;28.00;2.47;;;;;;;25.58;56.10;99615.81;7315941;19;129161;-35
2022/08/02 01:14:40;;;;;;;17.67;1.83;;;;;;;25.59;56.20;99619.28;7317074;19;129704;-37
2022/08/02 01:17:12;;;;;;;46.90;4.07;;;;;;;25.58;56.17;99617.63;7315150;19;131291;-36
2022/08/02 01:20:10;;;;;;;22.73;2.13;;;;;;;25.60;57.51;99613.03;7315156;19;128914;-35
2022/08/02 01:22:54;;;;;;;;;;;;;;;25.69;58.14;99619.94;7319360;19;129513;-36
2022/08/02 01:25:36;;;;;;;47.20;4.15;;;;;;;25.61;57.25;99614.69;7315277;19;131381;-37
2022/08/02 01:28:02;;;;;;;29.70;2.50;;;;;;;25.60;55.39;99623.56;7313434;19;129149;-41
2022/08/02 01:30:30;;;;;;;41.30;3.73;;;;;;;25.60;56.40;99626.22;7314993;19;129155;-37
2022/08/02 01:33:00;;;;;;;34.92;3.33;;;;;;;25.49;56.13;99600.19;7315252;19;129432;-36
2022/08/02 01:35:53;;;;;;;27.38;2.83;;;;;;;25.59;57.76;99611.38;7315044;19;129099;-40
2022/08/02 01:38:42;;;;;;;49.03;4.15;;;;;;;25.61;57.66;99614.69;7313235;19;130486;-39
2022/08/02 01:41:14;;;;;;;27.70;2.65;;;;;;;25.57;57.03;99618.59;7316080;19;130411;-38
2022/08/02 01:43:41;;;;;;;52.40;4.60;;;;;;;25.56;55.49;99620.44;7314712;19;129552;-39
2022/08/02 01:46:09;;;;;;;24.85;2.47;;;;;;;25.56;56.48;99632.78;7312414;19;129876;-36
2022/08/02 01:48:35;;;;;;;19.60;1.80;;;;;;;25.56;55.61;99627.50;7314522;19;130263;-40
2022/08/02 01:51:01;;;;;;;35.40;3.03;;;;;;;25.55;55.17;99633.78;7314872;19;129001;-32
2022/08/02 01:53:29;;;;;;;34.80;3.13;;;;;;;25.56;56.88;99630.13;7315724;19;129102;-37
2022/08/02 01:55:58;;;;;;;44.10;3.95;;;;;;;25.54;56.63;99625.03;7316046;19;130143;-34
2022/08/02 01:58:26;;;;;;;7.72;1.27;;;;;;;25.52;56.43;99621.75;7314677;19;128766;-35
2022/08/02 02:00:55;;;;;;;38.83;3.35;;;;;;;25.52;55.90;99628.81;7314677;19;128898;-39
2022/08/02 02:03:23;;;;;;;19.00;1.85;;;;;;;25.55;56.79;99631.13;7315247;19;129569;-41
2022/08/02 02:05:52;;;;;;;20.75;2.10;;;;;;;25.55;56.00;99620.59;7314173;19;129424;-36
2022/08/02 02:08:25;;;;;;;24.45;2.80;;;;;;;25.53;57.37;99623.41;7311238;19;129319;-36
2022/08/02 02:10:52;;;;;;;12.45;1.50;;;;;;;25.53;55.71;99633.09;7314767;19;128930;-40
2022/08/02 02:13:19;;;;;;;31.85;3.03;;;;;;;25.52;56.47;99628.81;7313601;19;130644;-36
2022/08/02 02:15:47;;;;;;;20.85;2.03;;;;;;;25.52;55.74;99628.81;7315147;19;130331;-39
2022/08/02 02:18:19;;;;;;;58.47;5.18;;;;;;;25.52;56.80;99626.19;7313396;19;129816;-40
2022/08/02 02:20:45;;;;;;;30.55;2.78;;;;;;;25.51;55.46;99624.53;7314507;19;130250;-38
2022/08/02 02:23:11;;;;;;;18.48;1.88;;;;;;;25.53;55.91;99643.63;7313124;19;129267;-38
2022/08/02 02:25:40;;;;;;;20.57;2.10;;;;;;;25.52;56.48;99641.97;7315166;19;130314;-35
2022/08/02 02:28:23;;;;;;;41.90;3.85;;;;;;;25.52;57.54;99641.97;7313373;19;129189;-38
2022/08/02 02:30:52;;;;;;;17.05;1.98;;;;;;;25.50;55.95;99641.34;7313948;19;129086;-35
2022/08/02 02:33:19;;;;;;;28.75;2.80;;;;;;;25.50;56.25;99644.78;7310780;19;129598;-42
2022/08/02 02:35:48;;;;;;;24.08;2.53;;;;;;;25.50;57.12;99643.97;7313414;19;129260;-36
2022/08/02 02:38:16;;;;;;;38.70;3.47;;;;;;;25.48;55.84;99643.31;7314141;19;128986;-40
2022/08/02 02:40:45;;;;;;;49.45;4.50;;;;;;;25.50;55.95;99651.88;7313171;19;129108;-37
2022/08/02 02:43:11;;;;;;;22.65;2.17;;;;;;;25.51;54.82;99653.50;7312918;19;129321;-35
2022/08/02 02:45:39;;;;;;;23.20;2.47;;;;;;;25.52;56.14;99647.25;7307353;19;129453;-35
2022/08/02 02:48:06;;;;;;;33.50;3.17;;;;;;;25.50;55.44;99649.25;7311191;19;129090;-36
2022/08/02 02:50:32;;;;;;;23.45;2.38;;;;;;;25.50;56.14;99646.59;7314041;19;130781;-42
2022/08/02 02:53:00;;;;;;;31.45;2.95;;;;;;;25.49;55.77;99644.94;7311624;19;131236;-35
2022/08/02 02:55:27;;;;;;;13.60;1.55;;;;;;;25.48;55.34;99652.03;7313368;19;129208;-35
2022/08/02 02:57:53;;;;;;;44.95;3.88;;;;;;;25.49;56.30;99653.66;7311780;19;130693;-40
2022/08/02 03:01:26;;;;;;;19.83;2.22;;;;;;;25.51;55.78;99656.13;7313157;19;129801;-36
2022/08/02 03:03:06;;;;;;;26.08;2.53;;;;;;;25.49;55.65;99653.66;7310971;19;130529;-35
2022/08/02 03:05:31;;;;;;;25.05;2.58;;;;;;;25.49;55.88;99651.03;7313262;19;130842;-40
2022/08/02 03:07:57;;;;;;;43.30;3.83;;;;;;;25.50;56.13;99654.50;7312153;19;128844;-35
2022/08/02 03:10:22;;;;;;;18.00;1.90;;;;;;;25.49;55.75;99658.09;7310269;19;128886;-38
2022/08/02 03:12:48;;;;;;;25.80;2.57;;;;;;;25.51;55.38;99661.41;7313028;19;130193;-37
2022/08/02 03:15:16;;;;;;;36.63;3.23;;;;;;;25.50;56.36;99659.78;7311063;19;130381;-36
2022/08/02 03:17:44;;;;;;;17.88;1.83;;;;;;;25.49;56.32;99658.09;7314939;19;128973;-35
2022/08/02 03:20:15;;;;;;;36.58;3.38;;;;;;;25.47;55.94;99665.34;7308339;19;128842;-38
2022/08/02 03:22:41;;;;;;;21.30;2.03;;;;;;;25.46;56.38;99655.81;7312090;19;129160;-39
2022/08/02 03:25:08;;;;;;;14.10;1.70;;;;;;;25.46;56.46;99659.25;7311604;19;131196;-41
2022/08/02 03:27:34;;;;;;;31.20;3.05;;;;;;;25.46;55.90;99648.75;7313387;19;129188;-37
2022/08/02 03:29:59;;;;;;;31.83;2.80;;;;;;;25.48;56.31;99645.94;7310008;19;129780;-34
2022/08/02 03:32:25;;;;;;;52.03;4.80;;;;;;;25.48;55.65;99645.94;7310374;19;129107;-41
2022/08/02 03:34:51;;;;;;;20.47;2.20;;;;;;;25.49;56.44;99647.56;7310775;19;130470;-39
2022/08/02 03:37:17;;;;;;;36.27;3.47;;;;;;;25.50;56.06;99649.25;7311834;19;129734;-41
2022/08/02 03:39:43;;;;;;;33.97;2.80;;;;;;;25.48;55.83;99646.78;7308701;19;129533;-36
2022/08/02 03:42:08;;;;;;;20.60;2.00;;;;;;;25.49;55.47;99652.84;7310622;19;131610;-34
2022/08/02 03:44:36;;;;;;;34.80;3.37;;;;;;;25.49;56.06;99668.63;7310535;19;130085;-35
2022/08/02 03:47:02;;;;;;;25.48;2.53;;;;;;;25.49;55.62;99658.94;7307718;19;129615;-34
2022/08/02 03:49:30;;;;;;;56.23;5.07;;;;;;;25.49;55.32;99668.63;7303505;19;130876;-35
2022/08/02 03:51:57;;;;;;;9.40;1.38;;;;;;;25.47;56.04;99670.59;7309389;19;132374;-36
2022/08/02 03:54:24;;;;;;;27.55;2.60;;;;;;;25.46;55.22;99668.97;7306810;19;129379;-37
2022/08/02 03:56:49;;;;;;;23.77;2.42;;;;;;;25.48;56.32;99669.63;7308821;19;129117;-34
2022/08/02 03:59:14;;;;;;;22.70;2.27;;;;;;;25.48;55.55;99667.00;7307971;19;129073;-37
2022/08/02 04:01:40;;;;;;;47.83;4.53;;;;;;;25.50;55.49;99672.94;7309016;19;129562;-39
2022/08/02 04:04:06;;;;;;;26.07;2.50;;;;;;;25.49;55.98;99668.63;7309400;19;129143;-39
2022/08/02 04:06:32;;;;;;;38.77;3.60;;;;;;;25.49;55.54;99674.72;7309797;19;129311;-43
2022/08/02 04:08:58;;;;;;;9.27;1.50;;;;;;;25.49;55.65;99687.88;7308239;19;129503;-35
2022/08/02 04:11:32;;;;;;;25.03;2.47;;;;;;;25.49;55.56;99684.44;7308441;19;129005;-37
2022/08/02 04:14:10;;;;;;;28.83;2.70;;;;;;;25.51;57.82;99687.72;7309186;19;130429;-37
2022/08/02 04:16:45;;;;;;;20.52;2.25;;;;;;;25.48;57.48;99688.06;7312973;19;129219;-44
2022/08/02 04:19:15;;;;;;;25.85;2.42;;;;;;;25.47;56.88;99689.84;7308497;19;130088;-39
2022/08/02 04:21:45;;;;;;;29.25;2.78;;;;;;;25.40;56.02;99677.53;7310074;19;129651;-36
2022/08/02 04:24:11;;;;;;;25.17;2.58;;;;;;;25.46;56.72;99692.66;7308344;19;130022;-37
2022/08/02 04:26:42;;;;;;;25.73;2.63;;;;;;;25.47;56.94;99697.75;7308530;19;129302;-40
2022/08/02 04:29:09;;;;;;;34.58;3.13;;;;;;;25.39;55.67;99683.75;7309825;19;129056;-37
2022/08/02 04:31:35;;;;;;;26.17;2.42;;;;;;;25.41;56.79;99692.31;7314235;19;129235;-35
2022/08/02 04:34:00;;;;;;;30.07;2.57;;;;;;;25.47;56.48;99707.44;7318606;19;131026;-34
2022/08/02 04:36:26;;;;;;;20.20;2.07;;;;;;;25.48;56.77;99709.94;7320080;19;129462;-34
2022/08/02 04:38:52;;;;;;;22.53;2.13;;;;;;;25.48;56.23;99717.00;7318394;19;129253;-32
2022/08/02 04:41:17;;;;;;;26.17;2.57;;;;;;;25.47;56.74;99712.72;7318832;19;129551;-34
2022/08/02 04:43:42;;;;;;;12.40;1.60;;;;;;;25.50;56.52;99723.75;7318220;19;129433;-34
2022/08/02 04:46:08;;;;;;;28.73;2.77;;;;;;;25.48;56.23;99724.91;7318715;19;128947;-36
2022/08/02 04:48:33;;;;;;;41.40;3.70;;;;;;;25.47;56.30;99728.50;7315831;19;131270;-34
2022/08/02 04:50:59;;;;;;;35.87;3.07;;;;;;;25.47;55.99;99729.34;7317205;19;129439;-39
2022/08/02 04:53:24;;;;;;;34.30;3.13;;;;;;;25.47;55.96;99731.16;7317760;19;129559;-40
2022/08/02 04:55:49;;;;;;;36.73;3.37;;;;;;;25.47;56.43;99728.50;7316965;19;129756;-34
2022/08/02 04:58:15;;;;;;;41.47;3.93;;;;;;;25.46;56.68;99732.16;7316289;19;129714;-38
2022/08/02 05:00:40;;;;;;;23.47;2.27;;;;;;;25.48;56.90;99730.19;7316087;19;131455;-36
2022/08/02 05:03:06;;;;;;;30.27;2.67;;;;;;;25.47;55.68;99728.50;7317443;19;129756;-35
2022/08/02 05:05:32;;;;;;;24.27;2.20;;;;;;;25.45;56.65;99726.03;7319499;19;129350;-34
2022/08/02 05:07:58;;;;;;;32.27;3.00;;;;;;;25.47;57.06;99734.59;7317671;19;130278;-39
2022/08/02 05:10:23;;;;;;;29.17;2.87;;;;;;;25.47;56.39;99728.50;7314309;19;129093;-38
2022/08/02 05:12:49;;;;;;;23.67;2.30;;;;;;;25.47;56.46;99729.34;7317285;19;129320;-38
2022/08/02 05:15:17;;;;;;;25.90;2.43;;;;;;;25.49;56.69;99726.56;7316725;19;129374;-36
2022/08/02 05:17:45;;;;;;;21.13;2.13;;;;;;;25.47;57.13;99723.25;7317686;19;130171;-36
2022/08/02 05:20:14;;;;;;;22.80;2.05;;;;;;;25.47;56.26;99736.41;7313569;19;130145;-40
2022/08/02 05:22:40;;;;;;;22.52;2.20;;;;;;;25.49;55.72;99721.28;7315731;19;129894;-35
2022/08/02 05:25:06;;;;;;;36.70;3.27;;;;;;;25.48;56.02;99730.19;7317000;19;129698;-36
2022/08/02 05:27:32;;;;;;;31.43;2.87;;;;;;;25.50;56.81;99734.28;7316658;19;129182;-34
2022/08/02 05:29:58;;;;;;;39.20;3.83;;;;;;;25.51;56.16;99745.66;7307819;19;130934;-36
2022/08/02 05:32:24;;;;;;;22.92;2.25;;;;;;;25.51;56.66;99740.38;7317013;19;130425;-35
2022/08/02 05:34:50;;;;;;;21.67;2.13;;;;;;;25.52;55.90;99750.75;7314043;19;129510;-38
2022/08/02 05:37:15;;;;;;;14.43;1.73;;;;;;;25.53;56.52;99741.88;7316159;19;129061;-35
2022/08/02 05:39:41;;;;;;;30.77;3.33;;;;;;;25.51;56.91;99741.22;7313162;19;129077;-33
2022/08/02 05:42:06;;;;;;;24.07;2.23;;;;;;;25.52;56.06;99744.66;7316938;19;129076;-35
2022/08/02 05:44:32;;;;;;;41.77;3.77;;;;;;;25.53;55.89;99744.53;7314754;19;129506;-36
2022/08/02 05:46:57;;;;;;;23.33;2.20;;;;;;;25.52;55.68;99749.91;7315286;19;130375;-34
2022/08/02 05:49:22;;;;;;;12.17;1.53;;;;;;;25.54;56.39;99747.94;7313048;19;129026;-38
2022/08/02 05:52:14;;;;;;;29.90;2.77;;;;;;;25.56;58.24;99740.72;7314671;19;129261;-37
2022/08/02 05:55:01;;;;;;;31.88;2.90;;;;;;;25.47;57.65;99733.78;7315519;19;129174;-38
2022/08/02 05:58:15;;;;;;;22.60;2.15;;;;;;;25.55;57.88;99747.00;7314346;19;129379;-36
2022/08/02 06:00:44;;;;;;;45.90;4.15;;;;;;;25.49;56.69;99731.81;7311565;19;130294;-37
2022/08/02 06:03:17;;;;;;;83.53;6.90;;;;;;;25.54;57.45;99750.59;7311711;19;129735;-37
2022/08/02 06:06:05;;;;;;;32.83;3.10;;;;;;;25.53;58.42;99754.22;7315562;19;129415;-37
2022/08/02 06:08:31;;;;;;;;;;;;;;;25.62;57.97;99746.16;7315799;19;129638;-34
2022/08/02 06:11:00;;;;;;;31.67;2.88;;;;;;;25.48;56.83;99735.44;7315739;19;130851;-41
2022/08/02 06:13:27;;;;;;;20.15;2.13;;;;;;;25.55;57.39;99749.63;7317455;19;129687;-34
2022/08/02 06:15:58;;;;;;;12.65;1.52;;;;;;;25.54;56.29;99746.16;7318095;19;129139;-35
2022/08/02 06:18:28;;;;;;;21.92;2.17;;;;;;;25.53;57.16;99755.06;7315890;19;129096;-37
2022/08/02 06:20:56;;;;;;;26.90;2.55;;;;;;;25.52;57.21;99748.13;7316459;19;129791;-35
2022/08/02 06:23:22;;;;;;;22.90;2.65;;;;;;;25.52;57.09;99753.38;7315383;19;131999;-35
2022/08/02 06:25:49;;;;;;;26.60;2.47;;;;;;;25.42;57.07;99739.53;7316137;19;129064;-39
2022/08/02 06:28:17;;;;;;;43.83;3.83;;;;;;;25.46;56.60;99745.31;7315363;19;129059;-36
2022/08/02 06:30:43;;;;;;;23.73;2.15;;;;;;;25.52;56.81;99757.81;7314741;19;129757;-41
2022/08/02 06:33:09;;;;;;;27.98;2.67;;;;;;;25.52;56.31;99765.72;7316407;19;129424;-37
2022/08/02 06:35:50;;;;;;;7.87;1.20;;;;;;;25.53;58.61;99759.47;7316890;19;129503;-34
2022/08/02 06:38:27;;;;;;;37.08;3.15;;;;;;;25.54;58.07;99766.38;7315379;19;128942;-39
2022/08/02 06:41:11;;;;;;;27.43;2.63;;;;;;;25.53;58.29;99759.47;7317195;19;129387;-37
2022/08/02 06:44:01;;;;;;;21.27;2.20;;;;;;;25.54;58.38;99755.84;7315858;19;129351;-38
2022/08/02 06:46:27;;;;;;;21.50;2.28;;;;;;;25.52;56.28;99757.81;7315248;19;129100;-36
2022/08/02 06:48:53;;;;;;;26.93;2.63;;;;;;;25.53;56.98;99760.31;7314203;19;129116;-39
2022/08/02 06:51:18;;;;;;;20.23;2.10;;;;;;;25.46;56.63;99748.78;7316327;19;130099;-41
2022/08/02 06:53:44;;;;;;;8.30;1.33;;;;;;;25.54;56.94;99761.13;7314814;19;129651;-35
2022/08/02 06:56:10;;;;;;;21.07;2.13;;;;;;;25.54;57.04;99761.94;7315391;19;128996;-38
2022/08/02 06:58:35;;;;;;;21.37;2.10;;;;;;;25.54;57.11;99761.13;7314929;19;129625;-38
2022/08/02 07:01:01;;;;;;;36.33;3.33;;;;;;;25.54;56.77;99761.13;7315162;19;128961;-37
2022/08/02 07:03:26;;;;;;;18.47;1.90;;;;;;;25.54;56.81;99750.59;7314882;19;130326;-36
2022/08/02 07:05:53;;;;;;;19.03;1.90;;;;;;;25.58;55.88;99750.09;7315657;19;128929;-41
2022/08/02 07:08:19;;;;;;;27.27;2.67;;;;;;;25.49;56.08;99743.19;7314362;19;129192;-34
2022/08/02 07:10:45;;;;;;;19.60;2.13;;;;;;;25.50;56.42;99744.81;7313428;19;129470;-34
2022/08/02 07:13:10;;;;;;;27.93;2.57;;;;;;;25.54;56.60;99745.31;7315477;19;129115;-38
2022/08/02 07:15:37;;;;;;;24.90;2.40;;;;;;;25.54;56.97;99750.59;7315437;19;128937;-35
2022/08/02 07:18:03;;;;;;;;;;;;;;;25.61;58.82;99756.88;7315026;19;129546;-36
2022/08/02 07:20:28;;;;;;;18.70;2.08;;;;;;;25.55;56.76;99749.63;7314831;19;129077;-35
2022/08/02 07:22:53;;;;;;;22.03;2.33;;;;;;;25.54;56.92;99750.59;7314541;19;130511;-37
2022/08/02 07:25:19;;;;;;;19.43;1.93;;;;;;;25.51;57.35;99746.47;7314884;19;129137;-34
2022/08/02 07:27:44;;;;;;;19.10;1.90;;;;;;;25.52;56.68;99757.81;7314806;19;129037;-35
2022/08/02 07:30:10;;;;;;;39.23;3.50;;;;;;;25.54;56.91;99754.06;7309859;19;129704;-36
2022/08/02 07:32:35;;;;;;;20.47;1.97;;;;;;;25.55;56.93;99752.25;7313960;19;129253;-38
2022/08/02 07:35:01;;;;;;;20.80;1.97;;;;;;;25.52;56.27;99752.56;7314005;19;129065;-43
2022/08/02 07:37:32;;;;;;;21.27;2.23;;;;;;;25.46;58.36;99724.25;7314922;19;128928;-35
2022/08/02 07:39:57;;;;;;;20.23;2.08;;;;;;;25.53;57.25;99743.69;7311326;19;129854;-34
2022/08/02 07:42:23;;;;;;;24.30;2.27;;;;;;;25.52;56.53;99734.94;7313021;19;129937;-37
2022/08/02 07:44:49;;;;;;;22.73;2.23;;;;;;;25.55;57.04;99741.72;7313861;19;129283;-35
2022/08/02 07:47:14;;;;;;;25.40;2.50;;;;;;;25.53;56.24;99733.16;7313237;19;129215;-38
2022/08/02 07:49:39;;;;;;;20.30;2.03;;;;;;;25.53;56.44;99736.63;7311121;19;129285;-35
2022/08/02 07:52:05;;;;;;;25.07;2.47;;;;;;;25.54;56.54;99734.78;7313876;19;129255;-39
2022/08/02 07:54:30;;;;;;;9.97;1.10;;;;;;;25.55;56.81;99739.09;7313343;19;128880;-39
2022/08/02 07:56:56;;;;;;;19.73;1.93;;;;;;;25.53;56.03;99733.16;7313718;19;128802;-34
2022/08/02 07:59:21;;;;;;;27.23;2.77;;;;;;;25.54;56.69;99721.63;7310598;19;129221;-41
2022/08/02 08:01:48;;;;;;;6.40;1.10;;;;;;;25.52;56.73;99724.41;7313713;19;129170;-38
2022/08/02 08:04:14;;;;;;;21.52;2.13;;;;;;;25.58;56.11;99715.06;7312010;19;128927;-39
2022/08/02 08:06:40;;;;;;;8.20;1.55;;;;;;;25.43;56.26;99708.78;7313852;19;129033;-33
2022/08/02 08:09:05;;;;;;;24.47;2.27;;;;;;;25.51;56.62;99719.31;7311653;19;129412;-35
2022/08/02 08:11:30;;;;;;;9.00;1.37;;;;;;;25.49;56.94;99723.91;7313179;19;130011;-39
2022/08/02 08:13:56;;;;;;;21.00;2.07;;;;;;;25.51;57.06;99724.59;7313305;19;128805;-37
2022/08/02 08:16:21;;;;;;;27.90;2.60;;;;;;;25.46;56.69;99716.34;7313970;19;129153;-38
2022/08/02 08:18:47;;;;;;;27.27;2.53;;;;;;;25.52;57.33;99719.16;7311843;19;130936;-38
2022/08/02 08:21:13;;;;;;;18.50;1.90;;;;;;;25.54;57.61;99719.00;7314476;19;130398;-34
2022/08/02 08:23:38;;;;;;;21.60;1.97;;;;;;;25.51;56.27;99714.88;7312237;19;129509;-33
2022/08/02 08:26:04;;;;;;;20.33;2.00;;;;;;;25.50;56.46;99713.22;7313122;19;128801;-38
2022/08/02 08:28:29;;;;;;;41.40;3.57;;;;;;;25.52;57.11;99718.31;7310666;19;129269;-40
2022/08/02 08:30:54;;;;;;;28.53;2.43;;;;;;;25.52;56.82;99713.88;7310454;19;129053;-38
2022/08/02 08:33:20;;;;;;;27.43;2.47;;;;;;;25.55;56.75;99720.66;7313011;19;129412;-35
2022/08/02 08:35:45;;;;;;;21.07;1.90;;;;;;;25.46;56.20;99705.81;7312743;19;128895;-41
2022/08/02 08:38:11;;;;;;;44.80;3.90;;;;;;;25.54;57.66;99721.63;7311912;19;129437;-39
2022/08/02 08:40:37;;;;;;;28.00;2.50;;;;;;;25.51;56.25;99720.16;7312439;19;129500;-33
2022/08/02 08:43:03;;;;;;;26.73;2.43;;;;;;;25.45;57.31;99701.56;7312596;19;129531;-35
2022/08/02 08:45:29;;;;;;;13.80;1.58;;;;;;;25.50;56.38;99712.41;7312174;19;129166;-35
2022/08/02 08:48:00;;;;;;;23.70;2.23;;;;;;;25.45;57.56;99698.91;7312389;19;129152;-39
2022/08/02 08:50:25;;;;;;;11.35;1.35;;;;;;;25.48;57.42;99703.84;7309818;19;130372;-35
2022/08/02 08:53:03;;;;;;;23.67;2.27;;;;;;;25.53;57.51;99718.19;7312304;19;128913;-36
2022/08/02 08:55:33;;;;;;;27.23;2.75;;;;;;;25.54;56.86;99713.72;7310800;19;129009;-35
2022/08/02 08:57:59;;;;;;;;;;;;;;;25.59;59.29;99706.16;7313053;19;131251;-43
2022/08/02 09:00:25;;;;;;;19.25;1.90;;;;;;;25.55;57.26;99710.13;7312064;19;130499;-40
2022/08/02 09:02:50;;;;;;;27.35;2.42;;;;;;;25.53;56.55;99712.09;7310761;19;128863;-38
2022/08/02 09:05:17;;;;;;;19.73;1.77;;;;;;;25.52;57.05;99707.78;7311506;19;128883;-36
2022/08/02 09:07:46;;;;;;;24.67;2.33;;;;;;;25.53;57.75;99718.19;7311789;19;130070;-35
2022/08/02 09:10:36;;;;;;;21.20;2.10;;;;;;;25.56;59.30;99715.22;7307896;19;130390;-38
2022/08/02 09:13:10;;;;;;;22.05;1.95;;;;;;;25.52;58.91;99705.16;7312373;19;129212;-37
2022/08/02 09:15:37;;;;;;;21.17;2.03;;;;;;;25.52;56.66;99713.88;7311566;19;129093;-36
2022/08/02 09:18:06;;;;;;;33.53;2.95;;;;;;;25.52;58.35;99705.16;7313123;19;129988;-39
2022/08/02 09:20:34;;;;;;;29.52;2.75;;;;;;;25.53;57.51;99702.41;7317822;19;129194;-35
2022/08/02 09:23:10;;;;;;;19.65;1.95;;;;;;;25.43;58.71;99688.56;7318132;19;128975;-35
2022/08/02 09:25:36;;;;;;;20.77;2.00;;;;;;;25.52;56.91;99706.00;7319184;19;129085;-39
2022/08/02 09:28:04;;;;;;;30.08;2.88;;;;;;;25.50;56.79;99707.97;7319248;19;129464;-37
2022/08/02 09:30:30;;;;;;;22.23;2.20;;;;;;;25.51;56.35;99706.16;7315836;19;130377;-41
2022/08/02 09:32:55;;;;;;;28.33;2.50;;;;;;;25.52;56.83;99705.16;7317885;19;128809;-37
2022/08/02 09:35:35;;;;;;;19.30;1.87;;;;;;;25.52;58.66;99700.72;7317757;19;128950;-35
2022/08/02 09:38:12;;;;;;;8.45;1.50;;;;;;;25.52;58.74;99699.91;7317735;19;129343;-35
2022/08/02 09:40:39;;;;;;;29.45;2.55;;;;;;;25.52;56.67;99689.38;7317226;19;129752;-41
2022/08/02 09:43:08;;;;;;;20.52;1.75;;;;;;;25.46;58.03;99675.06;7317635;19;129226;-35
2022/08/02 09:45:35;;;;;;;13.05;1.67;;;;;;;25.50;58.23;99691.34;7317375;19;129222;-34
2022/08/02 09:48:07;;;;;;;28.52;2.55;;;;;;;25.51;58.67;99682.47;7316553;19;129916;-43
2022/08/02 09:50:37;;;;;;;22.92;2.25;;;;;;;25.50;58.79;99676.38;7316592;19;129340;-37
2022/08/02 09:53:03;;;;;;;27.92;2.50;;;;;;;25.52;57.06;99681.47;7317356;19;129405;-40
2022/08/02 09:55:28;;;;;;;42.10;3.63;;;;;;;25.51;57.60;99685.09;7310761;19;128981;-35
2022/08/02 09:57:54;;;;;;;34.67;3.17;;;;;;;25.50;56.64;99681.63;7312204;19;129330;-40
2022/08/02 10:00:20;;;;;;;16.83;1.77;;;;;;;25.46;57.44;99668.97;7313022;19;129927;-36
2022/08/02 10:03:09;;;;;;;24.60;2.17;;;;;;;25.55;59.20;99673.25;7316957;19;128799;-45
2022/08/02 10:05:46;;;;;;;22.23;2.10;;;;;;;25.51;58.80;99687.72;7316498;19;129265;-35
2022/08/02 10:08:12;;;;;;;45.03;4.10;;;;;;;25.52;56.67;99682.28;7315144;19;129348;-38
2022/08/02 10:10:38;;;;;;;22.03;2.23;;;;;;;25.52;56.70;99681.47;7314874;19;130249;-37
2022/08/02 10:13:04;;;;;;;27.23;2.70;;;;;;;25.53;57.07;99680.50;7317187;19;129740;-39
2022/08/02 10:15:30;;;;;;;22.95;2.10;;;;;;;25.53;57.09;99672.59;7317665;19;129523;-35
2022/08/02 10:17:55;;;;;;;29.73;2.87;;;;;;;25.52;57.53;99673.56;7315789;19;128938;-39
2022/08/02 10:20:21;;;;;;;22.17;2.00;;;;;;;25.52;57.54;99663.03;7316204;19;130056;-40
2022/08/02 10:22:47;;;;;;;15.77;1.70;;;;;;;25.51;57.46;99666.66;7317302;19;130192;-39
2022/08/02 10:25:14;;;;;;;34.75;3.05;;;;;;;25.50;56.83;99671.09;7316587;19;129214;-41
2022/08/02 10:27:42;;;;;;;13.02;1.55;;;;;;;25.50;57.53;99670.28;7314798;19;129536;-37
2022/08/02 10:30:08;;;;;;;17.35;2.00;;;;;;;25.51;57.05;99662.22;7310684;19;131125;-34
2022/08/02 10:32:44;;;;;;;25.60;2.50;;;;;;;25.51;58.90;99658.78;7313879;19;128825;-36
2022/08/02 10:35:14;;;;;;;35.08;3.25;;;;;;;25.48;57.59;99661.72;7316792;19;130325;-37
2022/08/02 10:37:42;;;;;;;24.85;2.35;;;;;;;25.44;57.09;99641.97;7315072;19;130982;-38
2022/08/02 10:40:21;;;;;;;14.25;1.70;;;;;;;25.50;57.20;99654.50;7312698;19;129224;-42
2022/08/02 10:42:52;;;;;;;4.10;0.90;;;;;;;25.51;58.27;99646.44;7316532;19;129288;-33
2022/08/02 10:45:19;;;;;;;23.08;2.33;;;;;;;25.50;56.83;99646.59;7316391;19;131233;-37
2022/08/02 10:48:06;;;;;;;17.67;1.95;;;;;;;25.52;59.05;99640.19;7315606;19;129588;-37
2022/08/02 10:50:51;;;;;;;23.70;2.33;;;;;;;25.54;59.29;99645.28;7314099;19;129717;-34
2022/08/02 10:53:23;;;;;;;33.05;3.00;;;;;;;25.51;57.85;99640.34;7314908;19;128751;-36
2022/08/02 10:55:50;;;;;;;40.15;3.55;;;;;;;25.52;57.35;99639.34;7315659;19;129046;-36
2022/08/02 10:58:18;;;;;;;48.00;4.30;;;;;;;25.44;57.75;99620.91;7312599;19;129519;-39
2022/08/02 11:00:43;;;;;;;26.33;2.47;;;;;;;25.52;57.68;99632.28;7315851;19;131449;-38
2022/08/02 11:03:43;;;;;;;21.30;1.90;;;;;;;25.54;58.93;99627.69;7315035;19;128902;-44
2022/08/02 11:06:13;;;;;;;9.20;1.20;;;;;;;25.51;58.62;99633.28;7313012;19;129126;-44
2022/08/02 11:08:39;;;;;;;15.30;1.80;;;;;;;25.55;56.54;99621.41;7313392;19;129254;-38
2022/08/02 11:11:07;;;;;;;16.93;1.73;;;;;;;25.50;58.10;99628.19;7312947;19;129536;-40
2022/08/02 11:13:58;;;;;;;27.70;2.55;;;;;;;25.51;59.55;99624.53;7314344;19;130253;-38
2022/08/02 11:16:55;;;;;;;27.58;2.63;;;;;;;25.51;59.44;99630.63;7313900;19;129112;-39
2022/08/02 11:19:26;;;;;;;34.35;3.17;;;;;;;25.51;58.47;99629.81;7311961;19;129225;-36
2022/08/02 11:22:01;;;;;;;10.35;1.23;;;;;;;25.51;58.96;99632.44;7314729;19;131309;-36
2022/08/02 11:24:30;;;;;;;27.23;2.58;;;;;;;25.50;57.86;99641.34;7314552;19;128765;-37
2022/08/02 11:26:56;;;;;;;21.02;1.90;;;;;;;25.51;57.37;99645.59;7314337;19;129228;-36